sensor_id;sensor_type;location;lat;lon;timestamp;pressure;altitude;pressure_sealevel;temperature;humidity
26697;BME280;14312;52.614;13.496;2023-03-03T00:00:12;101645.34;;;3.74;60.30
26697;BME280;14312;52.614;13.496;2023-03-03T00:03:00;101644.19;;;3.76;60.06
26697;BME280;14312;52.614;13.496;2023-03-03T00:05:49;101654.38;;;3.79;59.99
26697;BME280;14312;52.614;13.496;2023-03-03T00:08:35;101653.22;;;3.82;59.75
26697;BME280;14312;52.614;13.496;2023-03-03T00:11:21;101648.41;;;3.85;59.94
26697;BME280;14312;52.614;13.496;2023-03-03T00:14:21;101647.59;;;3.85;60.77
26697;BME280;14312;52.614;13.496;2023-03-03T00:17:19;101625.50;;;3.86;60.38
26697;BME280;14312;52.614;13.496;2023-03-03T00:20:26;101628.81;;;3.88;60.69
26697;BME280;14312;52.614;13.496;2023-03-03T00:23:38;101638.34;;;3.89;60.85
26697;BME280;14312;52.614;13.496;2023-03-03T00:26:36;101640.00;;;3.90;60.38
26697;BME280;14312;52.614;13.496;2023-03-03T00:29:27;101632.09;;;3.90;60.10
26697;BME280;14312;52.614;13.496;2023-03-03T00:35:18;101641.63;;;3.91;60.85
26697;BME280;14312;52.614;13.496;2023-03-03T00:38:13;101627.81;;;3.89;60.33
26697;BME280;14312;52.614;13.496;2023-03-03T00:41:06;101619.25;;;3.87;60.08
26697;BME280;14312;52.614;13.496;2023-03-03T00:43:56;101625.50;;;3.86;59.70
26697;BME280;14312;52.614;13.496;2023-03-03T00:46:42;101626.50;;;3.85;60.15
26697;BME280;14312;52.614;13.496;2023-03-03T00:49:28;101629.13;;;3.85;59.80
26697;BME280;14312;52.614;13.496;2023-03-03T00:52:18;101620.22;;;3.86;59.96
26697;BME280;14312;52.614;13.496;2023-03-03T00:55:05;101617.59;;;3.86;60.32
26697;BME280;14312;52.614;13.496;2023-03-03T00:57:52;101603.59;;;3.85;60.26
26697;BME280;14312;52.614;13.496;2023-03-03T01:00:39;101607.06;;;3.86;60.28
26697;BME280;14312;52.614;13.496;2023-03-03T01:03:26;101609.53;;;3.87;60.06
26697;BME280;14312;52.614;13.496;2023-03-03T01:06:12;101609.69;;;3.86;60.04
26697;BME280;14312;52.614;13.496;2023-03-03T01:08:58;101613.97;;;3.87;60.25
26697;BME280;14312;52.614;13.496;2023-03-03T01:11:44;101608.69;;;3.87;60.21
26697;BME280;14312;52.614;13.496;2023-03-03T01:14:31;101605.41;;;3.85;60.01
26697;BME280;14312;52.614;13.496;2023-03-03T01:17:17;101609.69;;;3.86;60.20
26697;BME280;14312;52.614;13.496;2023-03-03T01:20:03;101598.16;;;3.87;60.25
26697;BME280;14312;52.614;13.496;2023-03-03T01:22:49;101593.72;;;3.87;60.18
26697;BME280;14312;52.614;13.496;2023-03-03T01:25:35;101595.53;;;3.87;60.37
26697;BME280;14312;52.614;13.496;2023-03-03T01:28:21;101600.63;;;3.88;60.27
26697;BME280;14312;52.614;13.496;2023-03-03T01:31:07;101585.81;;;3.87;60.30
26697;BME280;14312;52.614;13.496;2023-03-03T01:33:53;101585.97;;;3.86;60.51
26697;BME280;14312;52.614;13.496;2023-03-03T01:36:39;101587.94;;;3.84;60.32
26697;BME280;14312;52.614;13.496;2023-03-03T01:39:25;101579.41;;;3.82;60.39
26697;BME280;14312;52.614;13.496;2023-03-03T01:42:11;101576.13;;;3.80;60.15
26697;BME280;14312;52.614;13.496;2023-03-03T01:45:28;101567.56;;;3.78;61.61
26697;BME280;14312;52.614;13.496;2023-03-03T01:48:17;101568.06;;;3.73;60.37
26697;BME280;14312;52.614;13.496;2023-03-03T01:54:11;101565.31;;;3.67;60.54
26697;BME280;14312;52.614;13.496;2023-03-03T01:57:02;101574.19;;;3.66;60.39
26697;BME280;14312;52.614;13.496;2023-03-03T01:59:51;101576.19;;;3.64;60.34
26697;BME280;14312;52.614;13.496;2023-03-03T02:02:39;101577.16;;;3.63;60.73
26697;BME280;14312;52.614;13.496;2023-03-03T02:05:26;101585.06;;;3.63;60.71
26697;BME280;14312;52.614;13.496;2023-03-03T02:08:15;101575.34;;;3.63;60.79
26697;BME280;14312;52.614;13.496;2023-03-03T02:11:05;101575.34;;;3.63;60.83
26697;BME280;14312;52.614;13.496;2023-03-03T02:13:51;101581.13;;;3.67;60.91
26697;BME280;14312;52.614;13.496;2023-03-03T02:16:38;101582.78;;;3.68;60.85
26697;BME280;14312;52.614;13.496;2023-03-03T02:19:37;101582.41;;;3.71;60.99
26697;BME280;14312;52.614;13.496;2023-03-03T02:22:57;101582.06;;;3.74;62.23
26697;BME280;14312;52.614;13.496;2023-03-03T02:28:41;101583.72;;;3.75;61.03
26697;BME280;14312;52.614;13.496;2023-03-03T02:31:29;101577.63;;;3.74;60.82
26697;BME280;14312;52.614;13.496;2023-03-03T02:34:15;101572.34;;;3.74;60.93
26697;BME280;14312;52.614;13.496;2023-03-03T02:37:02;101580.44;;;3.73;60.52
26697;BME280;14312;52.614;13.496;2023-03-03T02:39:48;101590.97;;;3.73;60.48
26697;BME280;14312;52.614;13.496;2023-03-03T02:42:34;101580.75;;;3.70;60.79
26697;BME280;14312;52.614;13.496;2023-03-03T02:45:20;101583.91;;;3.65;60.70
26697;BME280;14312;52.614;13.496;2023-03-03T02:48:06;101587.06;;;3.61;60.52
26697;BME280;14312;52.614;13.496;2023-03-03T02:50:52;101579.50;;;3.58;60.71
26697;BME280;14312;52.614;13.496;2023-03-03T02:53:38;101589.38;;;3.55;60.76
26697;BME280;14312;52.614;13.496;2023-03-03T02:56:24;101586.13;;;3.53;60.93
26697;BME280;14312;52.614;13.496;2023-03-03T02:59:11;101582.00;;;3.51;61.13
26697;BME280;14312;52.614;13.496;2023-03-03T03:01:56;101581.19;;;3.50;61.03
26697;BME280;14312;52.614;13.496;2023-03-03T03:04:43;101590.06;;;3.49;60.89
26697;BME280;14312;52.614;13.496;2023-03-03T03:07:28;101585.16;;;3.46;61.01
26697;BME280;14312;52.614;13.496;2023-03-03T03:10:15;101587.13;;;3.44;60.74
26697;BME280;14312;52.614;13.496;2023-03-03T03:13:00;101598.81;;;3.42;60.88
26697;BME280;14312;52.614;13.496;2023-03-03T03:15:46;101616.63;;;3.40;61.22
26697;BME280;14312;52.614;13.496;2023-03-03T03:18:33;101624.69;;;3.38;60.98
26697;BME280;14312;52.614;13.496;2023-03-03T03:21:19;101610.84;;;3.36;61.08
26697;BME280;14312;52.614;13.496;2023-03-03T03:24:05;101614.47;;;3.35;61.20
26697;BME280;14312;52.614;13.496;2023-03-03T03:26:51;101614.47;;;3.35;61.30
26697;BME280;14312;52.614;13.496;2023-03-03T03:29:37;101613.84;;;3.33;61.24
26697;BME280;14312;52.614;13.496;2023-03-03T03:32:23;101616.63;;;3.32;61.40
26697;BME280;14312;52.614;13.496;2023-03-03T03:35:09;101615.16;;;3.29;61.13
26697;BME280;14312;52.614;13.496;2023-03-03T03:37:56;101607.75;;;3.25;61.41
26697;BME280;14312;52.614;13.496;2023-03-03T03:40:42;101607.25;;;3.21;61.29
26697;BME280;14312;52.614;13.496;2023-03-03T03:43:28;101604.00;;;3.19;61.45
26697;BME280;14312;52.614;13.496;2023-03-03T03:46:14;101596.59;;;3.14;61.32
26697;BME280;14312;52.614;13.496;2023-03-03T03:49:00;101601.38;;;3.11;61.23
26697;BME280;14312;52.614;13.496;2023-03-03T03:51:46;101584.91;;;3.09;61.20
26697;BME280;14312;52.614;13.496;2023-03-03T03:54:32;101587.88;;;3.06;61.28
26697;BME280;14312;52.614;13.496;2023-03-03T03:57:18;101578.66;;;3.02;61.63
26697;BME280;14312;52.614;13.496;2023-03-03T04:00:05;101577.03;;;3.01;61.56
26697;BME280;14312;52.614;13.496;2023-03-03T04:02:51;101580.66;;;3.00;61.41
26697;BME280;14312;52.614;13.496;2023-03-03T04:05:37;101580.00;;;2.98;61.39
26697;BME280;14312;52.614;13.496;2023-03-03T04:08:23;101578.69;;;2.94;61.15
26697;BME280;14312;52.614;13.496;2023-03-03T04:11:09;101578.53;;;2.87;61.23
26697;BME280;14312;52.614;13.496;2023-03-03T04:13:55;101578.38;;;2.81;61.08
26697;BME280;14312;52.614;13.496;2023-03-03T04:16:41;101586.44;;;2.79;61.58
26697;BME280;14312;52.614;13.496;2023-03-03T04:19:27;101583.31;;;2.75;61.59
26697;BME280;14312;52.614;13.496;2023-03-03T04:22:13;101582.66;;;2.73;61.47
26697;BME280;14312;52.614;13.496;2023-03-03T04:25:00;101581.34;;;2.69;61.57
26697;BME280;14312;52.614;13.496;2023-03-03T04:27:49;101576.41;;;2.66;61.44
26697;BME280;14312;52.614;13.496;2023-03-03T04:30:37;101578.72;;;2.61;62.25
26697;BME280;14312;52.614;13.496;2023-03-03T04:33:23;101568.66;;;2.57;61.62
26697;BME280;14312;52.614;13.496;2023-03-03T04:36:09;101569.16;;;2.52;61.98
26697;BME280;14312;52.614;13.496;2023-03-03T04:38:55;101568.84;;;2.47;62.09
26697;BME280;14312;52.614;13.496;2023-03-03T04:41:41;101570.16;;;2.43;61.70
26697;BME280;14312;52.614;13.496;2023-03-03T04:44:27;101580.19;;;2.40;61.99
26697;BME280;14312;52.614;13.496;2023-03-03T04:47:13;101581.66;;;2.34;61.85
26697;BME280;14312;52.614;13.496;2023-03-03T04:49:59;101577.03;;;2.28;62.21
26697;BME280;14312;52.614;13.496;2023-03-03T04:52:45;101581.66;;;2.26;62.11
26697;BME280;14312;52.614;13.496;2023-03-03T04:55:31;101574.06;;;2.23;62.06
26697;BME280;14312;52.614;13.496;2023-03-03T04:58:18;101578.66;;;2.21;62.65
26697;BME280;14312;52.614;13.496;2023-03-03T05:01:04;101566.53;;;2.20;62.81
26697;BME280;14312;52.614;13.496;2023-03-03T05:03:50;101548.28;;;2.18;62.73
26697;BME280;14312;52.614;13.496;2023-03-03T05:06:36;101555.34;;;2.18;62.57
26697;BME280;14312;52.614;13.496;2023-03-03T05:09:22;101566.69;;;2.18;62.65
26697;BME280;14312;52.614;13.496;2023-03-03T05:12:08;101557.00;;;2.19;62.28
26697;BME280;14312;52.614;13.496;2023-03-03T05:14:54;101568.66;;;2.16;62.86
26697;BME280;14312;52.614;13.496;2023-03-03T05:17:40;101564.22;;;2.17;62.62
26697;BME280;14312;52.614;13.496;2023-03-03T05:20:26;101565.19;;;2.16;62.82
26697;BME280;14312;52.614;13.496;2023-03-03T05:23:12;101565.53;;;2.13;62.88
26697;BME280;14312;52.614;13.496;2023-03-03T05:25:58;101572.59;;;2.12;63.08
26697;BME280;14312;52.614;13.496;2023-03-03T05:28:44;101585.88;;;2.11;62.65
26697;BME280;14312;52.614;13.496;2023-03-03T05:31:30;101585.06;;;2.10;62.67
26697;BME280;14312;52.614;13.496;2023-03-03T05:34:16;101590.16;;;2.12;62.85
26697;BME280;14312;52.614;13.496;2023-03-03T05:37:02;101591.16;;;2.11;62.75
26697;BME280;14312;52.614;13.496;2023-03-03T05:39:48;101585.06;;;2.10;62.87
26697;BME280;14312;52.614;13.496;2023-03-03T05:42:34;101599.69;;;2.13;63.10
26697;BME280;14312;52.614;13.496;2023-03-03T05:45:20;101601.00;;;2.17;62.98
26697;BME280;14312;52.614;13.496;2023-03-03T05:48:06;101592.16;;;2.18;63.15
26697;BME280;14312;52.614;13.496;2023-03-03T05:50:52;101591.81;;;2.21;63.32
26697;BME280;14312;52.614;13.496;2023-03-03T05:53:38;101593.16;;;2.25;63.04
26697;BME280;14312;52.614;13.496;2023-03-03T05:56:24;101589.19;;;2.29;62.97
26697;BME280;14312;52.614;13.496;2023-03-03T05:59:10;101595.13;;;2.31;62.79
26697;BME280;14312;52.614;13.496;2023-03-03T06:01:56;101594.13;;;2.32;62.81
26697;BME280;14312;52.614;13.496;2023-03-03T06:04:42;101604.97;;;2.29;nan
26697;BME280;14312;52.614;13.496;2023-03-03T06:07:28;101603.31;;;2.28;62.99
26697;BME280;14312;52.614;13.496;2023-03-03T06:10:14;101600.06;;;2.26;62.78
26697;BME280;14312;52.614;13.496;2023-03-03T06:13:00;101604.66;;;2.24;63.05
26697;BME280;14312;52.614;13.496;2023-03-03T06:15:46;101601.19;;;2.23;62.84
26697;BME280;14312;52.614;13.496;2023-03-03T06:18:32;101605.63;;;2.23;63.02
26697;BME280;14312;52.614;13.496;2023-03-03T06:21:18;101603.66;;;2.25;63.27
26697;BME280;14312;52.614;13.496;2023-03-03T06:24:04;101604.34;;;2.27;63.19
26697;BME280;14312;52.614;13.496;2023-03-03T06:26:51;101598.88;;;2.28;63.30
26697;BME280;14312;52.614;13.496;2023-03-03T06:29:37;101608.28;;;2.31;63.16
26697;BME280;14312;52.614;13.496;2023-03-03T06:32:23;101610.75;;;2.32;63.04
26697;BME280;14312;52.614;13.496;2023-03-03T06:35:09;101607.97;;;2.34;63.25
26697;BME280;14312;52.614;13.496;2023-03-03T06:37:54;101612.41;;;2.33;63.19
26697;BME280;14312;52.614;13.496;2023-03-03T06:40:40;101622.09;;;2.33;63.49
26697;BME280;14312;52.614;13.496;2023-03-03T06:43:26;101625.34;;;2.35;63.54
26697;BME280;14312;52.614;13.496;2023-03-03T06:46:12;101627.00;;;2.36;63.35
26697;BME280;14312;52.614;13.496;2023-03-03T06:48:58;101634.06;;;2.35;62.74
26697;BME280;14312;52.614;13.496;2023-03-03T06:51:44;101634.25;;;2.34;63.17
26697;BME280;14312;52.614;13.496;2023-03-03T06:54:31;101633.59;;;2.32;63.16
26697;BME280;14312;52.614;13.496;2023-03-03T06:57:24;101643.44;;;2.30;63.28
26697;BME280;14312;52.614;13.496;2023-03-03T07:03:14;101644.75;;;2.26;63.26
26697;BME280;14312;52.614;13.496;2023-03-03T07:06:01;101649.34;;;2.24;63.51
26697;BME280;14312;52.614;13.496;2023-03-03T07:08:51;101639.94;;;2.21;63.02
26697;BME280;14312;52.614;13.496;2023-03-03T07:11:37;101652.13;;;2.22;63.01
26697;BME280;14312;52.614;13.496;2023-03-03T07:14:26;101656.56;;;2.22;63.19
26697;BME280;14312;52.614;13.496;2023-03-03T07:17:18;101649.34;;;2.24;64.06
26697;BME280;14312;52.614;13.496;2023-03-03T07:20:17;101651.00;;;2.25;64.11
26697;BME280;14312;52.614;13.496;2023-03-03T07:23:19;101666.59;;;2.26;64.01
26697;BME280;14312;52.614;13.496;2023-03-03T07:26:08;101674.31;;;2.28;63.57
26697;BME280;14312;52.614;13.496;2023-03-03T07:28:59;101666.44;;;2.28;63.70
26697;BME280;14312;52.614;13.496;2023-03-03T07:31:47;101669.41;;;2.33;63.94
26697;BME280;14312;52.614;13.496;2023-03-03T07:34:41;101664.81;;;2.35;64.22
26697;BME280;14312;52.614;13.496;2023-03-03T07:37:38;101672.06;;;2.41;64.04
26697;BME280;14312;52.614;13.496;2023-03-03T07:43:26;101667.81;;;2.48;63.71
26697;BME280;14312;52.614;13.496;2023-03-03T07:46:28;101670.25;;;2.50;64.50
26697;BME280;14312;52.614;13.496;2023-03-03T07:49:36;101686.56;;;2.53;64.71
26697;BME280;14312;52.614;13.496;2023-03-03T07:52:28;101681.97;;;2.55;63.93
26697;BME280;14312;52.614;13.496;2023-03-03T07:58:20;101668.16;;;2.53;64.10
26697;BME280;14312;52.614;13.496;2023-03-03T08:01:36;101672.25;;;2.56;64.84
26697;BME280;14312;52.614;13.496;2023-03-03T08:04:46;101679.34;;;2.55;64.59
26697;BME280;14312;52.614;13.496;2023-03-03T08:07:35;101689.53;;;2.58;63.97
26697;BME280;14312;52.614;13.496;2023-03-03T08:10:35;101678.00;;;2.59;64.48
26697;BME280;14312;52.614;13.496;2023-03-03T08:16:36;101673.09;;;2.64;64.14
26697;BME280;14312;52.614;13.496;2023-03-03T08:19:23;101671.13;;;2.66;63.89
26697;BME280;14312;52.614;13.496;2023-03-03T08:22:15;101674.41;;;2.68;63.95
26697;BME280;14312;52.614;13.496;2023-03-03T08:25:02;101678.50;;;2.71;64.11
26697;BME280;14312;52.614;13.496;2023-03-03T08:27:48;101682.63;;;2.73;63.84
26697;BME280;14312;52.614;13.496;2023-03-03T08:30:34;101675.41;;;2.75;63.91
26697;BME280;14312;52.614;13.496;2023-03-03T08:33:20;101677.06;;;2.77;63.59
26697;BME280;14312;52.614;13.496;2023-03-03T08:36:07;101684.28;;;2.74;63.82
26697;BME280;14312;52.614;13.496;2023-03-03T08:38:53;101681.50;;;2.76;63.79
26697;BME280;14312;52.614;13.496;2023-03-03T08:41:40;101678.38;;;2.81;63.97
26697;BME280;14312;52.614;13.496;2023-03-03T08:44:28;101677.03;;;2.85;63.78
26697;BME280;14312;52.614;13.496;2023-03-03T08:47:14;101684.31;;;2.91;64.33
26697;BME280;14312;52.614;13.496;2023-03-03T08:50:00;101683.97;;;2.94;64.15
26697;BME280;14312;52.614;13.496;2023-03-03T08:52:48;101681.50;;;3.00;64.08
26697;BME280;14312;52.614;13.496;2023-03-03T08:55:34;101677.38;;;3.06;64.14
26697;BME280;14312;52.614;13.496;2023-03-03T08:58:20;101666.53;;;3.09;63.88
26697;BME280;14312;52.614;13.496;2023-03-03T09:01:06;101663.22;;;3.07;63.83
26697;BME280;14312;52.614;13.496;2023-03-03T09:03:52;101669.81;;;3.11;64.28
26697;BME280;14312;52.614;13.496;2023-03-03T09:06:38;101673.09;;;3.13;63.89
26697;BME280;14312;52.614;13.496;2023-03-03T09:09:24;101671.13;;;3.15;63.92
26697;BME280;14312;52.614;13.496;2023-03-03T09:12:18;101673.44;;;3.18;64.84
26697;BME280;14312;52.614;13.496;2023-03-03T09:15:32;101664.88;;;3.24;65.09
26697;BME280;14312;52.614;13.496;2023-03-03T09:18:21;101668.81;;;3.28;64.46
26697;BME280;14312;52.614;13.496;2023-03-03T09:21:22;101674.91;;;3.37;64.98
26697;BME280;14312;52.614;13.496;2023-03-03T09:24:18;101669.94;;;3.42;64.96
26697;BME280;14312;52.614;13.496;2023-03-03T09:27:18;101674.38;;;3.49;65.23
26697;BME280;14312;52.614;13.496;2023-03-03T09:33:44;101667.78;;;3.62;64.65
26697;BME280;14312;52.614;13.496;2023-03-03T09:36:36;101672.69;;;3.65;64.33
26697;BME280;14312;52.614;13.496;2023-03-03T09:39:25;101679.28;;;3.69;64.10
26697;BME280;14312;52.614;13.496;2023-03-03T09:45:33;101661.63;;;3.77;65.01
26697;BME280;14312;52.614;13.496;2023-03-03T09:48:43;101667.03;;;3.84;64.52
26697;BME280;14312;52.614;13.496;2023-03-03T09:51:44;101668.34;;;3.88;64.31
26697;BME280;14312;52.614;13.496;2023-03-03T09:54:53;101670.63;;;3.91;64.62
26697;BME280;14312;52.614;13.496;2023-03-03T10:10:49;101666.91;;;4.16;64.48
26697;BME280;14312;52.614;13.496;2023-03-03T10:17:01;101664.56;;;4.21;64.45
26697;BME280;14312;52.614;13.496;2023-03-03T10:20:02;101667.84;;;4.23;64.17
26697;BME280;14312;52.614;13.496;2023-03-03T10:22:55;101671.16;;;4.25;63.85
26697;BME280;14312;52.614;13.496;2023-03-03T10:26:00;101670.78;;;4.28;64.53
26697;BME280;14312;52.614;13.496;2023-03-03T10:29:08;101666.50;;;4.27;64.57
26697;BME280;14312;52.614;13.496;2023-03-03T10:32:50;101668.81;;;4.30;64.85
26697;BME280;14312;52.614;13.496;2023-03-03T10:45:58;101681.84;;;4.55;64.28
26697;BME280;14312;52.614;13.496;2023-03-03T10:51:58;101683.63;;;4.62;64.22
26697;BME280;14312;52.614;13.496;2023-03-03T10:58:19;101675.34;;;4.65;63.95
26697;BME280;14312;52.614;13.496;2023-03-03T11:07:20;101685.03;;;4.73;63.76
26697;BME280;14312;52.614;13.496;2023-03-03T11:10:20;101681.41;;;4.74;64.27
26697;BME280;14312;52.614;13.496;2023-03-03T11:13:30;101675.13;;;4.75;64.16
26697;BME280;14312;52.614;13.496;2023-03-03T11:26:24;101678.28;;;4.93;64.47
26697;BME280;14312;52.614;13.496;2023-03-03T11:29:27;101668.38;;;4.95;64.61
26697;BME280;14312;52.614;13.496;2023-03-03T11:35:28;101665.13;;;5.08;64.42
26697;BME280;14312;52.614;13.496;2023-03-03T11:44:17;101669.28;;;5.25;63.96
26697;BME280;14312;52.614;13.496;2023-03-03T11:47:20;101657.34;;;5.29;64.20
26697;BME280;14312;52.614;13.496;2023-03-03T11:53:21;101648.16;;;5.40;64.02
26697;BME280;14312;52.614;13.496;2023-03-03T11:56:43;101646.63;;;5.45;64.25
26697;BME280;14312;52.614;13.496;2023-03-03T12:06:04;101631.84;;;5.51;63.72
26697;BME280;14312;52.614;13.496;2023-03-03T12:09:15;101616.00;;;5.51;64.08
26697;BME280;14312;52.614;13.496;2023-03-03T12:12:10;101623.75;;;5.53;63.65
26697;BME280;14312;52.614;13.496;2023-03-03T12:15:40;101625.00;;;5.57;63.46
26697;BME280;14312;52.614;13.496;2023-03-03T12:19:02;101617.25;;;5.55;63.56
26697;BME280;14312;52.614;13.496;2023-03-03T12:27:43;101611.97;;;5.55;63.78
26697;BME280;14312;52.614;13.496;2023-03-03T12:43:07;101600.28;;;5.64;64.47
26697;BME280;14312;52.614;13.496;2023-03-03T12:48:55;101591.09;;;5.75;64.04
26697;BME280;14312;52.614;13.496;2023-03-03T12:51:50;101606.03;;;5.82;64.38
26697;BME280;14312;52.614;13.496;2023-03-03T12:58:10;101597.47;;;5.95;64.01
26697;BME280;14312;52.614;13.496;2023-03-03T13:04:40;101596.34;;;6.04;63.93
26697;BME280;14312;52.614;13.496;2023-03-03T13:10:39;101582.56;;;6.09;64.08
26697;BME280;14312;52.614;13.496;2023-03-03T13:13:40;101580.56;;;6.11;63.98
26697;BME280;14312;52.614;13.496;2023-03-03T13:16:34;101578.16;;;6.16;63.59
26697;BME280;14312;52.614;13.496;2023-03-03T13:19:31;101570.47;;;6.21;63.85
26697;BME280;14312;52.614;13.496;2023-03-03T13:22:41;101569.09;;;6.25;63.73
26697;BME280;14312;52.614;13.496;2023-03-03T13:25:47;101558.31;;;6.26;63.99
26697;BME280;14312;52.614;13.496;2023-03-03T13:31:32;101560.78;;;6.28;63.61
26697;BME280;14312;52.614;13.496;2023-03-03T13:37:31;101565.25;;;6.27;63.56
26697;BME280;14312;52.614;13.496;2023-03-03T13:40:25;101561.16;;;6.25;63.65
26697;BME280;14312;52.614;13.496;2023-03-03T13:43:18;101557.13;;;6.29;63.53
26697;BME280;14312;52.614;13.496;2023-03-03T13:46:11;101555.47;;;6.28;63.47
26697;BME280;14312;52.614;13.496;2023-03-03T13:49:34;101547.78;;;6.33;63.94
26697;BME280;14312;52.614;13.496;2023-03-03T13:52:27;101541.50;;;6.34;63.71
26697;BME280;14312;52.614;13.496;2023-03-03T14:04:19;101547.78;;;6.54;63.80
26697;BME280;14312;52.614;13.496;2023-03-03T14:07:17;101537.81;;;6.56;63.37
26697;BME280;14312;52.614;13.496;2023-03-03T14:10:25;101531.16;;;6.60;63.80
26697;BME280;14312;52.614;13.496;2023-03-03T14:13:32;101533.41;;;6.63;63.67
26697;BME280;14312;52.614;13.496;2023-03-03T14:19:27;101535.41;;;6.61;63.01
26697;BME280;14312;52.614;13.496;2023-03-03T14:22:25;101524.41;;;6.58;63.25
26697;BME280;14312;52.614;13.496;2023-03-03T14:25:15;101511.75;;;6.53;63.19
26697;BME280;14312;52.614;13.496;2023-03-03T14:28:11;101512.53;;;6.54;63.56
26697;BME280;14312;52.614;13.496;2023-03-03T14:31:13;101515.00;;;6.55;63.62
26697;BME280;14312;52.614;13.496;2023-03-03T14:37:28;101501.25;;;6.66;64.03
26697;BME280;14312;52.614;13.496;2023-03-03T14:40:22;101510.44;;;6.71;63.49
26697;BME280;14312;52.614;13.496;2023-03-03T14:43:22;101503.75;;;6.75;63.59
26697;BME280;14312;52.614;13.496;2023-03-03T14:49:27;101491.56;;;6.80;63.26
26697;BME280;14312;52.614;13.496;2023-03-03T14:55:33;101482.59;;;6.81;63.13
26697;BME280;14312;52.614;13.496;2023-03-03T14:58:50;101485.44;;;6.80;63.36
26697;BME280;14312;52.614;13.496;2023-03-03T15:01:37;101480.16;;;6.80;63.13
26697;BME280;14312;52.614;13.496;2023-03-03T15:04:26;101479.75;;;6.83;63.38
26697;BME280;14312;52.614;13.496;2023-03-03T15:10:05;101474.28;;;6.91;63.32
26697;BME280;14312;52.614;13.496;2023-03-03T15:12:56;101472.28;;;6.93;63.39
26697;BME280;14312;52.614;13.496;2023-03-03T15:15:51;101478.22;;;6.95;63.39
26697;BME280;14312;52.614;13.496;2023-03-03T15:25:26;101462.75;;;7.05;63.00
26697;BME280;14312;52.614;13.496;2023-03-03T15:34:25;101453.78;;;7.06;63.43
26697;BME280;14312;52.614;13.496;2023-03-03T15:40:34;101451.78;;;7.08;63.03
26697;BME280;14312;52.614;13.496;2023-03-03T15:43:36;101442.00;;;7.08;63.26
26697;BME280;14312;52.614;13.496;2023-03-03T15:50:23;101442.81;;;7.09;63.15
26697;BME280;14312;52.614;13.496;2023-03-03T15:53:26;101443.19;;;7.06;63.16
26697;BME280;14312;52.614;13.496;2023-03-03T15:56:50;101442.56;;;7.04;63.41
26697;BME280;14312;52.614;13.496;2023-03-03T16:03:04;101437.03;;;6.99;63.07
26697;BME280;14312;52.614;13.496;2023-03-03T16:05:56;101437.03;;;6.99;62.88
26697;BME280;14312;52.614;13.496;2023-03-03T16:09:22;101438.69;;;7.00;63.21
26697;BME280;14312;52.614;13.496;2023-03-03T16:16:17;101434.03;;;7.02;63.54
26697;BME280;14312;52.614;13.496;2023-03-03T16:31:34;101417.72;;;7.05;63.38
26697;BME280;14312;52.614;13.496;2023-03-03T16:34:55;101416.69;;;7.06;63.27
26697;BME280;14312;52.614;13.496;2023-03-03T16:38:05;101415.69;;;7.07;63.54
26697;BME280;14312;52.614;13.496;2023-03-03T16:40:56;101411.41;;;7.06;63.15
26697;BME280;14312;52.614;13.496;2023-03-03T16:46:48;101416.28;;;7.02;62.94
26697;BME280;14312;52.614;13.496;2023-03-03T16:49:54;101419.50;;;6.98;63.12
26697;BME280;14312;52.614;13.496;2023-03-03T16:52:49;101427.25;;;6.93;62.99
26697;BME280;14312;52.614;13.496;2023-03-03T16:56:08;101420.72;;;6.89;63.28
26697;BME280;14312;52.614;13.496;2023-03-03T16:59:07;101418.22;;;6.81;63.08
26697;BME280;14312;52.614;13.496;2023-03-03T17:02:11;101423.91;;;6.78;63.17
26697;BME280;14312;52.614;13.496;2023-03-03T17:08:21;101419.16;;;6.66;62.95
26697;BME280;14312;52.614;13.496;2023-03-03T17:14:25;101410.72;;;6.56;63.35
26697;BME280;14312;52.614;13.496;2023-03-03T17:20:55;101413.13;;;6.45;63.33
26697;BME280;14312;52.614;13.496;2023-03-03T17:24:05;101420.41;;;6.43;63.57
26697;BME280;14312;52.614;13.496;2023-03-03T17:33:09;101422.06;;;6.44;63.81
26697;BME280;14312;52.614;13.496;2023-03-03T17:36:06;101410.28;;;6.46;63.71
26697;BME280;14312;52.614;13.496;2023-03-03T17:39:18;101418.81;;;6.48;64.19
26697;BME280;14312;52.614;13.496;2023-03-03T17:42:18;101425.56;;;6.51;63.98
26697;BME280;14312;52.614;13.496;2023-03-03T17:45:11;101419.88;;;6.54;64.07
26697;BME280;14312;52.614;13.496;2023-03-03T17:54:47;101409.75;;;6.64;63.66
26697;BME280;14312;52.614;13.496;2023-03-03T18:04:30;101403.91;;;6.75;64.07
26697;BME280;14312;52.614;13.496;2023-03-03T18:10:37;101399.88;;;6.79;63.67
26697;BME280;14312;52.614;13.496;2023-03-03T18:14:02;101394.38;;;6.81;63.89
26697;BME280;14312;52.614;13.496;2023-03-03T18:22:53;101392.97;;;6.85;63.65
26697;BME280;14312;52.614;13.496;2023-03-03T18:25:58;101388.94;;;6.89;63.95
26697;BME280;14312;52.614;13.496;2023-03-03T18:28:47;101382.41;;;6.91;63.81
26697;BME280;14312;52.614;13.496;2023-03-03T18:32:15;101384.47;;;6.96;63.75
26697;BME280;14312;52.614;13.496;2023-03-03T18:41:12;101376.75;;;7.01;64.34
26697;BME280;14312;52.614;13.496;2023-03-03T18:44:29;101377.97;;;7.05;64.26
26697;BME280;14312;52.614;13.496;2023-03-03T18:47:15;101375.94;;;7.07;63.63
26697;BME280;14312;52.614;13.496;2023-03-03T18:50:04;101376.56;;;7.09;63.61
26697;BME280;14312;52.614;13.496;2023-03-03T18:56:00;101354.97;;;7.12;63.81
26697;BME280;14312;52.614;13.496;2023-03-03T18:58:49;101363.53;;;7.14;63.88
26697;BME280;14312;52.614;13.496;2023-03-03T19:01:43;101366.19;;;7.14;64.08
26697;BME280;14312;52.614;13.496;2023-03-03T19:04:34;101361.69;;;7.15;63.99
26697;BME280;14312;52.614;13.496;2023-03-03T19:10:48;101357.63;;;7.19;63.88
26697;BME280;14312;52.614;13.496;2023-03-03T19:13:37;101349.91;;;7.17;63.56